Terminal Aerodrome Forecast
Issued by NWS

Home | Current Version | Previous Version | Text Only | Print | Product List | Glossary On
Versions: 1 2 3 4 5 6 7 8 9 10 11 12 13
000
FTAK31 PAJN 202337
TAFAWG
TAF
PAWG 202337Z 2100/2124 11004KT P6SM -SHRA FEW012 BKN025 BKN050
     FM211500 10012KT P6SM VCSH BKN060 WS020/16025KT
     FM212100 11014G20KT 6SM -RA SCT025 OVC050 WS020/12030KT
      AMD LTD TO CLD VIS AND WIND 2106/2115=

USA.gov is the U.S. government's official web portal to all federal, state and local government web resources and services.